createdAt,value
2024-04-22T00:00:24.388Z,1.30
2024-04-22T00:02:51.067Z,1.25
2024-04-22T00:05:17.841Z,1.63
2024-04-22T00:07:44.494Z,1.25
2024-04-22T00:10:11.190Z,1.38
2024-04-22T00:12:37.973Z,1.20
2024-04-22T00:15:05.100Z,1.20
2024-04-22T00:17:31.841Z,1.95
2024-04-22T00:19:59.758Z,1.33
2024-04-22T00:22:26.510Z,1.30
2024-04-22T00:24:53.205Z,1.40
2024-04-22T00:27:19.948Z,1.40
2024-04-22T00:29:46.637Z,1.50
2024-04-22T00:32:13.282Z,1.27
2024-04-22T00:34:40.226Z,1.30
2024-04-22T00:37:07.014Z,1.77
2024-04-22T00:39:33.716Z,1.20
2024-04-22T00:42:00.697Z,1.30
2024-04-22T00:44:27.502Z,1.40
2024-04-22T00:46:54.301Z,1.52
2024-04-22T00:49:21.793Z,1.57
2024-04-22T00:51:48.481Z,1.30
2024-04-22T00:54:16.194Z,1.40
2024-04-22T00:56:43.197Z,1.42
2024-04-22T00:59:09.992Z,1.58
2024-04-22T01:01:37.265Z,1.80
2024-04-22T01:04:04.652Z,1.25
2024-04-22T01:06:31.454Z,1.60
2024-04-22T01:08:58.082Z,1.40
2024-04-22T01:11:24.831Z,1.42
2024-04-22T01:13:51.662Z,1.40
2024-04-22T01:16:18.287Z,1.60
2024-04-22T01:18:45.476Z,1.60
2024-04-22T01:21:12.076Z,1.77
2024-04-22T01:23:39.150Z,1.48
2024-04-22T01:26:06.906Z,1.20
2024-04-22T01:28:33.544Z,1.08
2024-04-22T01:31:00.280Z,1.30
2024-04-22T01:33:27.060Z,1.15
2024-04-22T01:35:53.791Z,1.40
2024-04-22T01:38:20.464Z,1.70
2024-04-22T01:40:47.184Z,1.42
2024-04-22T01:43:14.219Z,1.33
2024-04-22T01:45:40.917Z,1.27
2024-04-22T01:48:07.898Z,1.20
2024-04-22T01:50:34.670Z,1.20
2024-04-22T01:53:01.324Z,1.20
2024-04-22T01:55:28.014Z,1.58
2024-04-22T01:57:54.689Z,1.27
2024-04-22T02:00:21.312Z,1.45
2024-04-22T02:02:48.126Z,1.40
2024-04-22T02:05:14.874Z,1.55
2024-04-22T02:07:41.633Z,1.20
2024-04-22T02:10:21.227Z,1.20
2024-04-22T02:12:50.595Z,1.40
2024-04-22T02:15:17.291Z,1.10
2024-04-22T02:17:43.979Z,1.40
2024-04-22T02:20:10.683Z,1.20
2024-04-22T02:22:37.466Z,1.27
2024-04-22T02:25:04.438Z,1.50
2024-04-22T02:27:31.099Z,1.17
2024-04-22T02:29:57.751Z,1.45
2024-04-22T02:32:24.436Z,1.65
2024-04-22T02:34:52.083Z,1.38
2024-04-22T02:37:18.840Z,1.17
2024-04-22T02:39:45.774Z,1.30
2024-04-22T02:42:12.390Z,1.15
2024-04-22T02:44:39.127Z,1.10
2024-04-22T02:47:06.144Z,1.08
2024-04-22T02:49:32.961Z,1.05
2024-04-22T02:51:59.635Z,1.20
2024-04-22T02:54:29.829Z,1.20
2024-04-22T02:56:56.647Z,1.20
2024-04-22T02:59:23.443Z,1.20
2024-04-22T03:01:51.481Z,1.20
2024-04-22T03:04:18.646Z,1.50
2024-04-22T03:06:45.424Z,1.88
2024-04-22T03:09:12.037Z,1.35
2024-04-22T03:11:38.706Z,1.45
2024-04-22T03:14:05.458Z,1.77
2024-04-22T03:16:32.182Z,1.83
2024-04-22T03:18:58.846Z,1.98
2024-04-22T03:21:26.010Z,1.55
2024-04-22T03:23:52.656Z,1.40
2024-04-22T03:26:19.276Z,1.48
2024-04-22T03:28:45.980Z,1.50
2024-04-22T03:31:12.690Z,1.88
2024-04-22T03:33:39.448Z,1.48
2024-04-22T03:36:06.698Z,1.30
2024-04-22T03:38:33.414Z,1.50
2024-04-22T03:41:00.024Z,1.63
2024-04-22T03:43:26.670Z,1.58
2024-04-22T03:46:11.815Z,1.45
2024-04-22T03:48:56.924Z,1.50
2024-04-22T03:51:23.579Z,1.38
2024-04-22T03:53:50.288Z,1.43
2024-04-22T03:56:17.132Z,1.45
2024-04-22T03:58:43.822Z,1.63
2024-04-22T04:01:10.635Z,1.48
2024-04-22T04:03:37.484Z,1.90
2024-04-22T04:06:04.464Z,1.80
2024-04-22T04:08:31.118Z,1.60
2024-04-22T04:11:02.190Z,1.90
2024-04-22T04:13:29.052Z,1.58
2024-04-22T04:15:55.744Z,1.05
2024-04-22T04:18:23.592Z,1.60
2024-04-22T04:20:50.271Z,1.60
2024-04-22T04:23:16.895Z,1.73
2024-04-22T04:25:43.548Z,1.38
2024-04-22T04:28:10.255Z,1.50
2024-04-22T04:30:36.958Z,1.70
2024-04-22T04:33:03.803Z,1.73
2024-04-22T04:35:30.436Z,1.45
2024-04-22T04:37:57.084Z,1.70
2024-04-22T04:40:24.448Z,1.45
2024-04-22T04:42:51.089Z,1.57
2024-04-22T04:45:17.732Z,1.70
2024-04-22T04:47:44.490Z,1.45
2024-04-22T04:50:11.246Z,1.55
2024-04-22T04:52:37.936Z,1.35
2024-04-22T04:55:04.926Z,1.57
2024-04-22T04:57:31.540Z,1.83
2024-04-22T04:59:58.140Z,1.40
2024-04-22T05:02:24.873Z,1.50
2024-04-22T05:04:51.572Z,1.60
2024-04-22T05:07:18.262Z,1.50
2024-04-22T05:09:44.917Z,1.42
2024-04-22T05:12:11.582Z,1.60
2024-04-22T05:14:38.194Z,1.98
2024-04-22T05:17:04.870Z,2.30
2024-04-22T05:19:31.632Z,2.87
2024-04-22T05:21:58.304Z,4.00
2024-04-22T05:24:27.986Z,5.03
2024-04-22T05:26:56.471Z,3.30
2024-04-22T05:29:23.187Z,2.08
2024-04-22T05:31:49.941Z,1.57
2024-04-22T05:34:36.180Z,1.17
2024-04-22T05:37:03.882Z,1.52
2024-04-22T05:39:30.644Z,1.10
2024-04-22T05:41:57.272Z,1.52
2024-04-22T05:44:24.024Z,1.40
2024-04-22T05:46:50.723Z,1.48
2024-04-22T05:49:17.543Z,1.50
2024-04-22T05:51:44.174Z,1.77
2024-04-22T05:54:10.922Z,1.38
2024-04-22T05:56:37.900Z,1.10
2024-04-22T05:59:06.233Z,1.38
2024-04-22T06:01:33.233Z,1.50
2024-04-22T06:04:00.012Z,1.42
2024-04-22T06:06:26.703Z,1.23
2024-04-22T06:08:53.341Z,1.37
2024-04-22T06:11:20.155Z,1.25
2024-04-22T06:13:46.826Z,1.10
2024-04-22T06:16:13.748Z,1.10
2024-04-22T06:18:40.417Z,0.90
2024-04-22T06:21:07.099Z,1.20
2024-04-22T06:23:34.043Z,1.27
2024-04-22T06:26:07.690Z,1.20
2024-04-22T06:28:34.739Z,1.30
2024-04-22T06:31:01.491Z,1.08
2024-04-22T06:33:29.175Z,1.20
2024-04-22T06:35:56.228Z,0.90
2024-04-22T06:38:23.329Z,1.00
2024-04-22T06:40:50.081Z,1.60
2024-04-22T06:43:18.190Z,1.30
2024-04-22T06:45:45.334Z,1.70
2024-04-22T06:48:12.181Z,1.77
2024-04-22T06:50:42.949Z,1.55
2024-04-22T06:53:09.754Z,1.40
2024-04-22T06:55:36.477Z,1.13
2024-04-22T06:58:03.415Z,1.80
2024-04-22T07:00:33.459Z,1.17
2024-04-22T07:03:00.360Z,1.25
2024-04-22T07:05:27.052Z,1.23
2024-04-22T07:07:53.659Z,1.05
2024-04-22T07:10:21.960Z,1.60
2024-04-22T07:12:48.818Z,0.80
2024-04-22T07:15:15.516Z,0.85
2024-04-22T07:17:42.236Z,0.98
2024-04-22T07:20:09.013Z,0.70
2024-04-22T07:22:39.556Z,1.00
2024-04-22T07:25:09.073Z,0.73
2024-04-22T07:27:35.950Z,0.98
2024-04-22T07:30:04.687Z,0.90
2024-04-22T07:32:31.815Z,0.90
2024-04-22T07:34:58.818Z,1.20
2024-04-22T07:37:34.159Z,0.85
2024-04-22T07:40:03.993Z,0.80
2024-04-22T07:42:30.634Z,1.35
2024-04-22T07:44:57.307Z,0.70
2024-04-22T07:47:23.976Z,0.90
2024-04-22T07:49:50.668Z,0.80
2024-04-22T07:52:17.702Z,1.08
2024-04-22T07:54:44.647Z,0.85
2024-04-22T07:57:11.546Z,1.02
2024-04-22T07:59:38.408Z,0.88
2024-04-22T08:02:05.422Z,0.83
2024-04-22T08:04:32.449Z,1.08
2024-04-22T08:07:04.014Z,1.00
2024-04-22T08:09:31.609Z,0.75
2024-04-22T08:11:58.936Z,0.70
2024-04-22T08:14:25.573Z,0.77
2024-04-22T08:16:52.403Z,0.93
2024-04-22T08:19:19.126Z,1.20
2024-04-22T08:21:46.401Z,0.80
2024-04-22T08:24:13.084Z,1.33
2024-04-22T08:26:39.744Z,0.67
2024-04-22T08:29:06.403Z,0.80
2024-04-22T08:31:35.411Z,0.60
2024-04-22T08:34:02.233Z,0.70
2024-04-22T08:36:28.838Z,0.85
2024-04-22T08:38:55.516Z,1.17
2024-04-22T08:41:22.699Z,0.68
2024-04-22T08:43:50.004Z,0.70
2024-04-22T08:46:19.006Z,0.70
2024-04-22T08:48:45.719Z,0.70
2024-04-22T08:51:12.916Z,0.80
2024-04-22T08:53:39.574Z,0.93
2024-04-22T08:56:07.157Z,0.68
2024-04-22T08:58:33.856Z,0.80
2024-04-22T09:01:04.998Z,0.90
2024-04-22T09:03:31.692Z,0.63
2024-04-22T09:05:58.483Z,0.90
2024-04-22T09:08:25.267Z,1.08
2024-04-22T09:13:31.192Z,0.90
2024-04-22T09:15:58.112Z,0.80
2024-04-22T09:18:30.062Z,0.70
2024-04-22T09:21:11.352Z,0.65
2024-04-22T09:23:38.857Z,0.80
2024-04-22T09:26:06.894Z,0.50
2024-04-22T09:28:39.081Z,0.70
2024-04-22T09:31:06.672Z,0.65
2024-04-22T09:33:37.902Z,0.80
2024-04-22T09:36:06.669Z,0.40
2024-04-22T09:38:46.160Z,0.50
2024-04-22T09:41:15.478Z,0.50
2024-04-22T09:43:49.612Z,0.70
2024-04-22T09:46:20.519Z,0.60
2024-04-22T09:48:48.818Z,0.73
2024-04-22T09:51:15.839Z,1.08
2024-04-22T09:53:42.810Z,0.70
2024-04-22T09:56:12.729Z,0.70
2024-04-22T09:58:41.625Z,0.90
2024-04-22T10:01:08.896Z,0.80
2024-04-22T10:03:36.889Z,0.65
2024-04-22T10:06:06.405Z,0.60
2024-04-22T10:08:34.628Z,0.65
2024-04-22T10:11:09.844Z,0.88
2024-04-22T10:13:37.436Z,0.88
2024-04-22T10:16:05.967Z,1.15
2024-04-22T10:18:32.809Z,1.17
2024-04-22T10:21:04.002Z,1.10
2024-04-22T10:23:30.857Z,1.15
2024-04-22T10:25:57.936Z,0.85
2024-04-22T10:28:24.681Z,1.27
2024-04-22T10:30:51.410Z,1.17
2024-04-22T10:33:18.214Z,1.23
2024-04-22T10:35:44.989Z,1.20
2024-04-22T10:38:11.644Z,1.17
2024-04-22T10:40:38.427Z,1.50
2024-04-22T10:43:05.318Z,1.27
2024-04-22T10:45:33.085Z,1.50
2024-04-22T10:48:08.648Z,1.50
2024-04-22T10:50:44.829Z,1.67
2024-04-22T10:53:11.561Z,1.35
2024-04-22T10:55:38.446Z,1.10
2024-04-22T10:58:05.653Z,0.98
2024-04-22T11:00:33.167Z,1.30
2024-04-22T11:03:00.493Z,1.20
2024-04-22T11:05:28.589Z,1.27
2024-04-22T11:07:55.480Z,1.13
2024-04-22T11:10:31.018Z,1.23
2024-04-22T11:13:01.832Z,1.00
2024-04-22T11:15:28.531Z,1.20
2024-04-22T11:18:05.099Z,1.48
2024-04-22T11:20:32.924Z,1.27
2024-04-22T11:22:59.740Z,1.17
2024-04-22T11:25:26.513Z,1.55
2024-04-22T11:27:53.303Z,1.05
2024-04-22T11:30:20.202Z,0.90
2024-04-22T11:32:46.906Z,0.90
2024-04-22T11:35:13.819Z,1.08
2024-04-22T11:37:41.272Z,1.00
2024-04-22T11:40:10.169Z,1.10
2024-04-22T11:42:36.863Z,1.50
2024-04-22T11:45:06.489Z,1.10
2024-04-22T11:47:33.702Z,1.23
2024-04-22T11:50:00.459Z,1.00
2024-04-22T11:52:27.216Z,1.17
2024-04-22T11:54:53.872Z,1.20
2024-04-22T11:57:20.495Z,1.20
2024-04-22T11:59:47.208Z,1.10
2024-04-22T12:02:18.050Z,1.40
2024-04-22T12:04:45.874Z,1.30
2024-04-22T12:07:12.773Z,1.30
2024-04-22T12:09:39.409Z,1.80
2024-04-22T12:12:06.526Z,1.25
2024-04-22T12:14:33.178Z,1.40
2024-04-22T12:16:59.978Z,0.80
2024-04-22T12:19:26.883Z,0.80
2024-04-22T12:21:53.722Z,0.90
2024-04-22T12:24:20.377Z,1.15
2024-04-22T12:26:47.020Z,0.70
2024-04-22T12:29:13.636Z,0.77
2024-04-22T12:31:40.549Z,0.60
2024-04-22T12:34:12.653Z,0.80
2024-04-22T12:36:41.120Z,0.60
2024-04-22T12:39:07.766Z,0.93
2024-04-22T12:41:34.467Z,0.80
2024-04-22T12:44:04.046Z,0.50
2024-04-22T12:46:57.422Z,0.40
2024-04-22T12:49:42.768Z,0.30
2024-04-22T12:52:10.244Z,0.50
2024-04-22T12:54:36.937Z,0.52
2024-04-22T12:57:03.824Z,0.50
2024-04-22T12:59:30.617Z,0.60
2024-04-22T13:01:57.609Z,0.70
2024-04-22T13:04:24.572Z,0.40
2024-04-22T13:06:51.380Z,0.40
2024-04-22T13:09:18.366Z,0.50
2024-04-22T13:11:45.771Z,0.47
2024-04-22T13:14:12.460Z,0.57
2024-04-22T13:16:39.104Z,0.50
2024-04-22T13:19:07.786Z,0.30
2024-04-22T13:21:34.937Z,0.40
2024-04-22T13:24:01.872Z,0.70
2024-04-22T13:26:28.607Z,0.60
2024-04-22T13:28:55.244Z,0.50
2024-04-22T13:31:23.044Z,0.43
2024-04-22T13:33:54.763Z,0.70
2024-04-22T13:36:21.453Z,0.40
2024-04-22T13:38:48.359Z,0.60
2024-04-22T13:41:15.162Z,0.30
2024-04-22T13:43:41.928Z,0.45
2024-04-22T13:46:08.824Z,0.38
2024-04-22T13:48:35.495Z,0.40
2024-04-22T13:51:02.483Z,0.60
2024-04-22T13:53:32.089Z,0.55
2024-04-22T13:55:59.758Z,0.50
2024-04-22T13:58:26.688Z,0.50
2024-04-22T14:00:53.532Z,0.40
2024-04-22T14:03:20.275Z,0.50
2024-04-22T14:05:46.931Z,0.30
2024-04-22T14:08:13.558Z,0.50
2024-04-22T14:10:40.439Z,1.05
2024-04-22T14:13:07.122Z,0.70
2024-04-22T14:15:44.702Z,0.45
2024-04-22T14:18:14.586Z,0.50
2024-04-22T14:20:41.956Z,0.50
2024-04-22T14:23:08.564Z,0.75
2024-04-22T14:25:35.902Z,0.57
2024-04-22T14:28:02.722Z,0.60
2024-04-22T14:30:29.395Z,0.60
2024-04-22T14:32:56.229Z,0.70
2024-04-22T14:35:22.943Z,0.70
2024-04-22T14:37:49.737Z,0.80
2024-04-22T14:40:16.588Z,0.68
2024-04-22T14:42:43.247Z,0.70
2024-04-22T14:45:09.983Z,0.65
2024-04-22T14:47:36.722Z,0.60
2024-04-22T14:50:03.489Z,0.90
2024-04-22T14:52:30.252Z,0.50
2024-04-22T14:54:56.964Z,0.50
2024-04-22T14:57:25.194Z,0.60
2024-04-22T14:59:51.886Z,0.60
2024-04-22T15:02:18.636Z,0.50
2024-04-22T15:04:45.523Z,0.63
2024-04-22T15:07:13.190Z,1.25
2024-04-22T15:09:43.056Z,0.65
2024-04-22T15:12:10.169Z,0.70
2024-04-22T15:14:36.846Z,0.67
2024-04-22T15:17:03.636Z,0.70
2024-04-22T15:19:30.458Z,0.40
2024-04-22T15:21:57.409Z,0.60
2024-04-22T15:24:24.309Z,0.60
2024-04-22T15:26:51.009Z,0.50
2024-04-22T15:29:17.881Z,0.70
2024-04-22T15:31:44.565Z,0.70
2024-04-22T15:34:11.332Z,0.55
2024-04-22T15:36:38.221Z,0.50
2024-04-22T15:39:08.364Z,0.50
2024-04-22T15:41:35.464Z,0.50
2024-04-22T15:44:03.490Z,0.47
2024-04-22T15:46:31.262Z,0.50
2024-04-22T15:48:58.053Z,0.30
2024-04-22T15:51:24.920Z,0.40
2024-04-22T15:53:51.890Z,0.40
2024-04-22T15:56:18.990Z,0.40
2024-04-22T15:58:45.885Z,0.40
2024-04-22T16:01:12.661Z,0.40
2024-04-22T16:03:39.537Z,0.37
2024-04-22T16:06:06.573Z,0.50
2024-04-22T16:08:33.357Z,0.30
2024-04-22T16:11:00.057Z,0.40
2024-04-22T16:13:26.863Z,0.40
2024-04-22T16:15:53.604Z,0.40
2024-04-22T16:18:20.411Z,0.30
2024-04-22T16:20:56.514Z,0.40
2024-04-22T16:23:31.706Z,0.40
2024-04-22T16:26:00.346Z,0.30
2024-04-22T16:28:27.197Z,0.60
2024-04-22T16:30:53.946Z,0.30
2024-04-22T16:33:20.684Z,0.30
2024-04-22T16:35:47.311Z,0.40
2024-04-22T16:38:13.943Z,0.38
2024-04-22T16:40:40.616Z,0.40
2024-04-22T16:43:08.914Z,0.30
2024-04-22T16:45:35.551Z,0.30
2024-04-22T16:48:02.431Z,0.40
2024-04-22T16:50:29.291Z,0.50
2024-04-22T16:52:56.045Z,0.30
2024-04-22T16:55:22.768Z,0.30
2024-04-22T16:57:49.460Z,0.50
2024-04-22T17:00:16.268Z,0.40
2024-04-22T17:02:43.077Z,0.50
2024-04-22T17:05:09.800Z,0.40
2024-04-22T17:07:36.900Z,0.30
2024-04-22T17:10:08.076Z,0.30
2024-04-22T17:12:34.722Z,0.30
2024-04-22T17:15:02.035Z,0.35
2024-04-22T17:17:28.878Z,0.20
2024-04-22T17:19:55.572Z,0.40
2024-04-22T17:22:22.248Z,0.30
2024-04-22T17:24:51.824Z,0.30
2024-04-22T17:27:21.742Z,0.20
2024-04-22T17:29:48.553Z,0.40
2024-04-22T17:32:15.870Z,0.30
2024-04-22T17:34:42.671Z,0.30
2024-04-22T17:37:12.409Z,0.30
2024-04-22T17:39:42.161Z,0.35
2024-04-22T17:42:10.144Z,0.50
2024-04-22T17:44:36.929Z,0.40
2024-04-22T17:47:04.955Z,0.40
2024-04-22T17:49:33.616Z,0.65
2024-04-22T17:52:00.292Z,0.40
2024-04-22T17:54:27.697Z,0.40
2024-04-22T17:56:59.763Z,0.30
2024-04-22T17:59:32.102Z,0.40
2024-04-22T18:01:58.742Z,0.30
2024-04-22T18:04:27.059Z,0.60
2024-04-22T18:06:53.936Z,0.30
2024-04-22T18:09:20.635Z,0.88
2024-04-22T18:11:47.452Z,0.30
2024-04-22T18:14:14.215Z,0.30
2024-04-22T18:16:42.358Z,0.45
2024-04-22T18:19:09.238Z,0.30
2024-04-22T18:21:36.017Z,0.70
2024-04-22T18:24:05.980Z,0.50
2024-04-22T18:26:34.455Z,0.43
2024-04-22T18:29:01.578Z,0.50
2024-04-22T18:31:28.241Z,0.40
2024-04-22T18:33:54.891Z,0.40
2024-04-22T18:36:21.518Z,0.40
2024-04-22T18:38:49.073Z,0.40
2024-04-22T18:41:15.968Z,0.30
2024-04-22T18:43:42.756Z,0.50
2024-04-22T18:46:09.704Z,0.40
2024-04-22T18:48:36.495Z,0.35
2024-04-22T18:51:03.313Z,0.35
2024-04-22T18:53:30.241Z,0.50
2024-04-22T18:55:57.288Z,0.50
2024-04-22T18:58:29.167Z,0.50
2024-04-22T19:00:56.244Z,0.30
2024-04-22T19:03:23.003Z,0.40
2024-04-22T19:05:49.667Z,0.30
2024-04-22T19:08:16.361Z,0.45
2024-04-22T19:10:43.213Z,0.50
2024-04-22T19:13:10.084Z,0.30
2024-04-22T19:15:36.868Z,0.45
2024-04-22T19:18:03.810Z,0.50
2024-04-22T19:20:30.626Z,0.65
2024-04-22T19:22:57.310Z,0.40
2024-04-22T19:25:24.128Z,0.30
2024-04-22T19:27:52.283Z,0.55
2024-04-22T19:30:19.363Z,0.60
2024-04-22T19:32:46.402Z,0.32
2024-04-22T19:35:13.342Z,0.40
2024-04-22T19:37:40.928Z,0.45
2024-04-22T19:40:08.191Z,0.40
2024-04-22T19:42:34.944Z,0.30
2024-04-22T19:45:03.805Z,0.73
2024-04-22T19:47:31.099Z,0.40
2024-04-22T19:49:58.150Z,0.30
2024-04-22T19:52:24.904Z,0.40
2024-04-22T19:54:54.639Z,0.50
2024-04-22T19:57:23.108Z,0.38
2024-04-22T19:59:50.488Z,0.60
2024-04-22T20:02:17.254Z,0.40
2024-04-22T20:04:45.109Z,0.60
2024-04-22T20:07:11.908Z,0.70
2024-04-22T20:09:38.676Z,0.50
2024-04-22T20:12:05.967Z,0.40
2024-04-22T20:14:32.652Z,0.70
2024-04-22T20:16:59.307Z,0.45
2024-04-22T20:19:26.961Z,0.40
2024-04-22T20:21:53.598Z,0.40
2024-04-22T20:24:20.236Z,0.30
2024-04-22T20:26:46.911Z,0.60
2024-04-22T20:29:15.647Z,0.50
2024-04-22T20:31:42.483Z,0.47
2024-04-22T20:34:09.302Z,0.43
2024-04-22T20:36:35.986Z,0.40
2024-04-22T20:39:02.619Z,0.60
2024-04-22T20:41:29.798Z,0.50
2024-04-22T20:43:56.973Z,0.60
2024-04-22T20:46:23.712Z,0.50
2024-04-22T20:48:50.392Z,0.63
2024-04-22T20:51:17.734Z,0.50
2024-04-22T20:53:44.435Z,0.40
2024-04-22T20:56:11.078Z,0.57
2024-04-22T20:58:37.815Z,0.90
2024-04-22T21:01:08.683Z,0.50
2024-04-22T21:03:36.074Z,0.40
2024-04-22T21:06:04.717Z,0.60
2024-04-22T21:08:31.947Z,0.60
2024-04-22T21:11:01.135Z,0.75
2024-04-22T21:13:30.079Z,0.43
2024-04-22T21:15:56.771Z,0.80
2024-04-22T21:18:23.449Z,1.00
2024-04-22T21:20:50.480Z,0.83
2024-04-22T21:23:17.274Z,0.70
2024-04-22T21:25:44.011Z,0.70
2024-04-22T21:28:10.780Z,0.77
2024-04-22T21:30:37.434Z,0.63
2024-04-22T21:33:18.121Z,0.53
2024-04-22T21:35:51.379Z,0.65
2024-04-22T21:38:18.041Z,1.17
2024-04-22T21:40:45.914Z,0.98
2024-04-22T21:43:12.616Z,0.80
2024-04-22T21:45:39.520Z,0.60
2024-04-22T21:48:06.629Z,0.85
2024-04-22T21:50:33.262Z,0.90
2024-04-22T21:52:59.916Z,0.70
2024-04-22T21:55:32.794Z,0.90
2024-04-22T21:58:37.064Z,0.80
2024-04-22T22:01:41.529Z,0.60
2024-04-22T22:04:45.702Z,0.90
2024-04-22T22:07:16.574Z,0.65
2024-04-22T22:09:44.327Z,0.90
2024-04-22T22:12:10.966Z,0.57
2024-04-22T22:14:37.595Z,0.55
2024-04-22T22:17:04.382Z,0.77
2024-04-22T22:19:32.090Z,0.95
2024-04-22T22:21:58.822Z,0.68
2024-04-22T22:24:25.431Z,0.73
2024-04-22T22:26:52.090Z,0.73
2024-04-22T22:29:18.763Z,0.88
2024-04-22T22:31:45.378Z,0.80
2024-04-22T22:34:12.265Z,1.00
2024-04-22T22:36:38.880Z,0.90
2024-04-22T22:39:05.491Z,0.77
2024-04-22T22:41:32.113Z,0.60
2024-04-22T22:43:58.789Z,0.50
2024-04-22T22:46:25.449Z,0.60
2024-04-22T22:48:52.076Z,1.00
2024-04-22T22:51:18.715Z,0.63
2024-04-22T22:53:45.395Z,1.02
2024-04-22T22:56:12.026Z,0.60
2024-04-22T22:58:38.658Z,0.82
2024-04-22T23:01:05.449Z,1.03
2024-04-22T23:03:32.114Z,0.75
2024-04-22T23:05:58.751Z,0.85
2024-04-22T23:08:25.342Z,0.80
2024-04-22T23:10:52.157Z,0.93
2024-04-22T23:13:18.911Z,0.70
2024-04-22T23:15:45.511Z,0.80
2024-04-22T23:18:12.155Z,0.65
2024-04-22T23:20:38.792Z,0.90
2024-04-22T23:23:05.502Z,1.23
2024-04-22T23:25:32.194Z,0.80
2024-04-22T23:27:58.871Z,0.65
2024-04-22T23:30:25.529Z,0.90
2024-04-22T23:32:52.205Z,1.00
2024-04-22T23:35:18.934Z,0.98
2024-04-22T23:37:45.623Z,1.00
2024-04-22T23:40:12.323Z,1.35
2024-04-22T23:42:38.956Z,0.80
2024-04-22T23:45:05.880Z,0.80
2024-04-22T23:47:32.618Z,0.90
2024-04-22T23:49:59.389Z,0.80
2024-04-22T23:52:26.138Z,0.90
2024-04-22T23:54:52.759Z,1.13
2024-04-22T23:57:19.386Z,0.93
2024-04-22T23:59:46.037Z,1.20
